createdAt,value
2023-04-27T00:02:30.948Z,1.50
2023-04-27T00:05:39.532Z,3.22
2023-04-27T00:08:42.301Z,1.33
2023-04-27T00:11:46.933Z,2.53
2023-04-27T00:14:49.626Z,1.45
2023-04-27T00:17:52.082Z,3.80
2023-04-27T00:20:55.107Z,0.88
2023-04-27T00:23:58.112Z,2.17
2023-04-27T00:27:00.761Z,1.50
2023-04-27T00:30:06.383Z,2.17
2023-04-27T00:33:09.422Z,2.15
2023-04-27T00:36:11.975Z,0.90
2023-04-27T00:39:17.428Z,3.78
2023-04-27T00:42:19.903Z,3.13
2023-04-27T00:45:29.955Z,1.20
2023-04-27T00:48:32.677Z,2.95
2023-04-27T00:51:35.589Z,1.33
2023-04-27T00:54:38.425Z,0.80
2023-04-27T00:57:41.069Z,1.27
2023-04-27T01:00:43.637Z,1.45
2023-04-27T01:03:47.910Z,0.80
2023-04-27T01:06:53.859Z,1.27
2023-04-27T01:09:57.085Z,1.55
2023-04-27T01:13:00.964Z,5.50
2023-04-27T01:16:03.974Z,1.67
2023-04-27T01:19:08.595Z,1.48
2023-04-27T01:22:15.702Z,1.13
2023-04-27T01:25:17.937Z,1.52
2023-04-27T01:28:22.114Z,1.05
2023-04-27T01:31:24.525Z,2.72
2023-04-27T01:34:33.732Z,1.00
2023-04-27T01:37:36.239Z,1.95
2023-04-27T01:40:43.734Z,1.15
2023-04-27T01:43:46.176Z,0.98
2023-04-27T01:46:48.875Z,0.52
2023-04-27T01:49:52.702Z,1.67
2023-04-27T01:55:59.990Z,1.38
2023-04-27T01:59:02.715Z,0.88
2023-04-27T02:02:05.184Z,2.65
2023-04-27T02:05:08.326Z,0.90
2023-04-27T02:08:11.051Z,0.88
2023-04-27T02:11:14.654Z,0.80
2023-04-27T02:14:16.990Z,1.38
2023-04-27T02:17:26.135Z,0.55
2023-04-27T02:20:31.392Z,0.77
2023-04-27T02:23:36.143Z,0.98
2023-04-27T02:26:38.574Z,0.93
2023-04-27T02:29:41.519Z,0.52
2023-04-27T02:32:44.346Z,0.82
2023-04-27T02:35:47.662Z,1.17
2023-04-27T02:38:49.776Z,1.58
2023-04-27T02:41:52.783Z,2.38
2023-04-27T02:44:55.180Z,1.90
2023-04-27T02:47:58.607Z,1.88
2023-04-27T02:51:06.297Z,1.45
2023-04-27T02:54:13.796Z,1.52
2023-04-27T02:57:15.902Z,1.65
2023-04-27T03:00:19.022Z,1.30
2023-04-27T03:03:21.980Z,0.90
2023-04-27T03:06:25.824Z,0.50
2023-04-27T03:09:28.853Z,2.28
2023-04-27T03:12:35.762Z,1.38
2023-04-27T03:15:37.870Z,1.35
2023-04-27T03:18:47.573Z,1.92
2023-04-27T03:21:49.902Z,1.58
2023-04-27T03:24:53.928Z,1.02
2023-04-27T03:27:56.656Z,0.75
2023-04-27T03:31:01.360Z,1.35
2023-04-27T03:34:03.327Z,3.90
2023-04-27T03:40:18.784Z,2.25
2023-04-27T03:43:22.371Z,1.38
2023-04-27T03:46:24.870Z,0.93
2023-04-27T03:49:29.060Z,1.42
2023-04-27T03:52:31.903Z,1.38
2023-04-27T03:55:39.397Z,1.85
2023-04-27T03:58:42.237Z,1.88
2023-04-27T04:02:00.891Z,1.83
2023-04-27T04:05:23.776Z,1.27
2023-04-27T04:08:29.165Z,1.63
2023-04-27T04:11:31.851Z,0.70
2023-04-27T04:17:38.532Z,1.23
2023-04-27T04:20:41.437Z,1.25
2023-04-27T04:23:44.123Z,2.42
2023-04-27T04:26:47.740Z,2.75
2023-04-27T04:29:50.550Z,1.45
2023-04-27T04:32:53.240Z,2.22
2023-04-27T04:35:56.057Z,0.70
2023-04-27T04:38:59.670Z,3.03
2023-04-27T04:42:04.153Z,0.68
2023-04-27T04:45:08.541Z,1.70
2023-04-27T04:48:11.710Z,0.95
2023-04-27T04:51:14.157Z,1.30
2023-04-27T04:54:16.664Z,1.55
2023-04-27T04:57:19.368Z,1.45
2023-04-27T05:00:23.015Z,1.73
2023-04-27T05:03:26.310Z,2.67
2023-04-27T05:06:28.605Z,1.50
2023-04-27T05:09:31.237Z,0.95
2023-04-27T05:12:33.728Z,1.27
2023-04-27T05:18:40.585Z,0.63
2023-04-27T05:21:43.015Z,0.60
2023-04-27T05:24:45.237Z,2.03
2023-04-27T05:27:48.147Z,1.23
2023-04-27T05:30:50.625Z,1.52
2023-04-27T05:33:53.457Z,1.52
2023-04-27T05:36:55.748Z,1.27
2023-04-27T05:39:59.042Z,1.02
2023-04-27T05:43:05.569Z,1.02
2023-04-27T05:46:08.606Z,1.08
2023-04-27T05:49:10.851Z,1.55
2023-04-27T05:52:16.685Z,2.70
2023-04-27T05:55:18.649Z,2.53
2023-04-27T05:58:22.540Z,1.60
2023-04-27T06:01:24.465Z,2.28
2023-04-27T06:04:27.091Z,1.05
2023-04-27T06:07:29.105Z,1.27
2023-04-27T06:10:31.423Z,1.95
2023-04-27T06:13:40.934Z,1.60
2023-04-27T06:16:44.967Z,1.48
2023-04-27T06:19:47.137Z,1.60
2023-04-27T06:22:49.434Z,2.10
2023-04-27T06:25:51.514Z,1.20
2023-04-27T06:28:54.975Z,1.60
2023-04-27T06:31:57.030Z,1.40
2023-04-27T06:34:59.361Z,2.10
2023-04-27T06:38:01.576Z,2.63
2023-04-27T06:41:15.307Z,3.00
2023-04-27T06:44:17.426Z,5.00
2023-04-27T06:47:19.841Z,4.35
2023-04-27T06:50:21.789Z,2.50
2023-04-27T06:53:24.178Z,5.10
2023-04-27T06:56:26.261Z,7.05
2023-04-27T06:59:28.503Z,7.90
2023-04-27T07:02:31.921Z,3.00
2023-04-27T07:05:34.654Z,2.60
2023-04-27T07:08:37.106Z,2.60
2023-04-27T07:11:40.780Z,8.20
2023-04-27T07:14:43.077Z,1.83
2023-04-27T07:17:45.486Z,2.78
2023-04-27T07:20:47.811Z,1.08
2023-04-27T07:23:56.160Z,2.45
2023-04-27T07:26:59.384Z,3.55
2023-04-27T07:30:02.225Z,1.20
2023-04-27T07:33:04.713Z,4.00
2023-04-27T07:36:07.524Z,2.28
2023-04-27T07:47:11.013Z,4.30
2023-04-27T07:50:17.172Z,1.40
2023-04-27T07:53:19.462Z,5.55
2023-04-27T07:56:22.169Z,3.00
2023-04-27T07:59:24.379Z,2.38
2023-04-27T08:02:31.840Z,3.05
2023-04-27T08:05:34.830Z,4.72
2023-04-27T08:08:38.356Z,2.60
2023-04-27T08:11:40.923Z,3.30
2023-04-27T08:14:49.679Z,3.25
2023-04-27T08:17:56.869Z,2.88
2023-04-27T08:21:15.856Z,6.10
2023-04-27T08:28:27.261Z,7.00
2023-04-27T08:31:31.132Z,3.95
2023-04-27T08:34:33.490Z,1.50
2023-04-27T08:37:38.119Z,2.30
2023-04-27T08:40:48.592Z,5.38
2023-04-27T08:43:54.782Z,3.60
2023-04-27T08:46:57.296Z,3.28
2023-04-27T08:50:03.394Z,2.60
2023-04-27T08:53:07.597Z,6.32
2023-04-27T08:56:10.219Z,4.50
2023-04-27T08:59:16.863Z,6.50
2023-04-27T09:02:20.685Z,6.13
2023-04-27T09:05:23.783Z,7.22
2023-04-27T09:08:26.384Z,4.22
2023-04-27T09:11:29.936Z,1.45
2023-04-27T09:14:36.136Z,23.15
2023-04-27T09:17:39.045Z,8.20
2023-04-27T09:20:49.328Z,5.03
2023-04-27T09:23:52.428Z,5.18
2023-04-27T09:26:54.702Z,2.60
2023-04-27T09:29:56.858Z,3.78
2023-04-27T09:33:04.473Z,3.08
2023-04-27T09:36:06.900Z,3.58
2023-04-27T09:39:09.323Z,4.60
2023-04-27T09:42:12.942Z,5.68
2023-04-27T09:45:16.246Z,8.35
2023-04-27T09:48:18.836Z,2.10
2023-04-27T09:51:21.132Z,2.33
2023-04-27T09:54:27.473Z,1.67
2023-04-27T09:57:54.942Z,7.78
2023-04-27T10:01:15.730Z,4.53
2023-04-27T10:04:54.809Z,3.22
2023-04-27T10:07:57.044Z,5.22
2023-04-27T10:10:59.325Z,7.07
2023-04-27T10:14:08.147Z,3.63
2023-04-27T10:17:11.267Z,5.75
2023-04-27T10:20:13.314Z,3.15
2023-04-27T10:23:27.686Z,3.92
2023-04-27T10:26:29.777Z,4.68
2023-04-27T10:29:43.724Z,3.78
2023-04-27T10:32:56.487Z,4.63
2023-04-27T10:36:00.315Z,8.93
2023-04-27T10:39:02.534Z,2.93
2023-04-27T10:42:05.582Z,3.13
2023-04-27T10:45:08.478Z,5.40
2023-04-27T10:48:18.348Z,2.50
2023-04-27T10:51:20.808Z,3.95
2023-04-27T10:54:31.642Z,1.55
2023-04-27T10:57:34.519Z,5.70
2023-04-27T11:00:44.051Z,3.38
2023-04-27T11:03:58.071Z,7.85
2023-04-27T11:07:01.778Z,6.28
2023-04-27T11:10:04.256Z,3.57
2023-04-27T11:21:39.435Z,4.95
2023-04-27T11:25:01.084Z,5.30
2023-04-27T11:28:04.591Z,7.03
2023-04-27T11:31:07.878Z,4.63
2023-04-27T11:34:16.286Z,6.60
2023-04-27T11:37:27.116Z,8.65
2023-04-27T11:40:30.005Z,5.65
2023-04-27T11:43:32.781Z,4.28
2023-04-27T11:46:37.023Z,3.95
2023-04-27T11:49:39.539Z,2.90
2023-04-27T11:52:42.552Z,6.43
2023-04-27T11:55:45.337Z,3.42
2023-04-27T11:58:48.667Z,4.15
2023-04-27T12:01:52.095Z,3.38
2023-04-27T12:04:55.242Z,2.35
2023-04-27T12:07:58.375Z,3.10
2023-04-27T12:11:01.055Z,2.75
2023-04-27T12:14:03.346Z,3.92
2023-04-27T12:17:18.864Z,3.13
2023-04-27T12:20:22.148Z,1.27
2023-04-27T12:24:05.041Z,2.78
2023-04-27T12:28:02.495Z,2.88
2023-04-27T12:31:39.505Z,2.65
2023-04-27T12:34:42.905Z,5.93
2023-04-27T12:38:16.103Z,8.57
2023-04-27T12:49:17.346Z,3.22
2023-04-27T12:52:21.012Z,7.95
2023-04-27T12:55:54.512Z,5.50
2023-04-27T12:59:04.789Z,5.85
2023-04-27T13:06:12.108Z,14.80
2023-04-27T13:09:14.325Z,16.35
2023-04-27T13:12:18.148Z,10.35
2023-04-27T13:15:23.472Z,15.32
2023-04-27T13:18:25.892Z,15.65
2023-04-27T13:21:30.376Z,18.15
2023-04-27T13:24:33.328Z,17.40
2023-04-27T13:27:37.651Z,12.13
2023-04-27T13:30:40.653Z,15.13
2023-04-27T13:33:44.696Z,13.13
2023-04-27T13:36:49.445Z,18.13
2023-04-27T13:39:52.795Z,13.70
2023-04-27T13:42:55.992Z,15.43
2023-04-27T13:46:01.150Z,9.02
2023-04-27T13:49:04.641Z,8.88
2023-04-27T13:52:07.154Z,11.50
2023-04-27T13:55:11.438Z,9.90
2023-04-27T13:58:14.580Z,10.70
2023-04-27T14:01:18.170Z,5.47
2023-04-27T14:04:20.923Z,13.73
2023-04-27T14:07:24.200Z,7.47
2023-04-27T14:10:28.903Z,8.82
2023-04-27T14:13:31.094Z,6.78
2023-04-27T14:16:33.528Z,6.38
2023-04-27T14:19:35.958Z,5.03
2023-04-27T14:22:38.529Z,9.23
2023-04-27T14:25:41.963Z,4.53
2023-04-27T14:28:44.253Z,5.57
2023-04-27T14:31:47.975Z,4.20
2023-04-27T14:34:50.881Z,3.38
2023-04-27T14:37:57.065Z,6.75
2023-04-27T14:41:05.527Z,8.15
2023-04-27T14:44:10.378Z,7.47
2023-04-27T14:47:15.545Z,6.68
2023-04-27T14:50:20.689Z,3.72
2023-04-27T14:53:48.528Z,10.32
2023-04-27T14:56:50.678Z,3.25
2023-04-27T14:59:56.254Z,9.00
2023-04-27T15:04:14.811Z,5.65
2023-04-27T15:07:22.681Z,4.95
2023-04-27T15:10:25.182Z,8.52
2023-04-27T15:13:28.050Z,7.47
2023-04-27T15:16:32.281Z,4.20
2023-04-27T15:19:35.021Z,5.65
2023-04-27T15:22:42.559Z,4.68
2023-04-27T15:25:47.504Z,4.65
2023-04-27T15:29:17.743Z,5.43
2023-04-27T15:32:18.605Z,6.18
2023-04-27T15:35:26.631Z,4.28
2023-04-27T15:38:29.205Z,4.18
2023-04-27T15:41:31.515Z,4.60
2023-04-27T15:44:34.941Z,2.70
2023-04-27T15:47:37.693Z,4.43
2023-04-27T15:50:41.622Z,6.75
2023-04-27T15:53:46.839Z,3.75
2023-04-27T15:56:49.539Z,9.95
2023-04-27T15:59:52.841Z,3.85
2023-04-27T16:02:55.755Z,3.37
2023-04-27T16:05:58.195Z,5.03
2023-04-27T16:09:04.458Z,4.47
2023-04-27T16:12:07.540Z,5.55
2023-04-27T16:15:14.548Z,4.15
2023-04-27T16:18:16.928Z,2.80
2023-04-27T16:21:19.816Z,6.93
2023-04-27T16:24:22.936Z,4.93
2023-04-27T16:27:29.922Z,3.65
2023-04-27T16:30:39.144Z,5.18
2023-04-27T16:33:44.897Z,5.05
2023-04-27T16:36:50.062Z,3.65
2023-04-27T16:39:53.097Z,3.33
2023-04-27T16:42:55.345Z,8.65
2023-04-27T16:46:00.365Z,4.45
2023-04-27T16:49:02.788Z,6.32
2023-04-27T16:57:09.259Z,6.75
2023-04-27T17:00:17.995Z,4.88
2023-04-27T17:03:22.327Z,4.00
2023-04-27T17:09:43.445Z,5.35
2023-04-27T17:12:45.761Z,2.83
2023-04-27T17:15:49.871Z,4.53
2023-04-27T17:18:52.944Z,5.90
2023-04-27T17:21:59.686Z,11.07
2023-04-27T17:25:05.942Z,5.82
2023-04-27T17:28:08.384Z,3.00
2023-04-27T17:31:14.811Z,5.32
2023-04-27T17:34:19.129Z,4.05
2023-04-27T17:37:29.168Z,3.42
2023-04-27T17:40:32.035Z,4.80
2023-04-27T17:43:37.759Z,11.00
2023-04-27T17:46:47.751Z,26.63
2023-04-27T17:49:51.379Z,32.83
2023-04-27T17:52:54.488Z,40.78
2023-04-27T17:55:57.829Z,34.07
2023-04-27T17:59:00.111Z,37.15
2023-04-27T18:02:03.136Z,29.63
2023-04-27T18:05:06.890Z,23.67
2023-04-27T18:08:09.862Z,37.97
2023-04-27T18:11:12.030Z,38.55
2023-04-27T18:14:18.754Z,39.78
2023-04-27T18:20:26.108Z,36.38
2023-04-27T18:23:29.859Z,39.67
2023-04-27T18:26:39.509Z,36.92
2023-04-27T18:29:41.792Z,35.75
2023-04-27T18:32:45.859Z,37.33
2023-04-27T18:35:51.186Z,37.42
2023-04-27T18:38:55.971Z,35.15
2023-04-27T18:45:03.612Z,33.45
2023-04-27T18:48:05.858Z,33.13
2023-04-27T18:51:11.381Z,37.83
2023-04-27T18:54:19.009Z,38.88
2023-04-27T18:57:34.838Z,40.33
2023-04-27T19:00:38.646Z,38.60
2023-04-27T19:03:41.662Z,34.85
2023-04-27T19:06:45.445Z,33.17
2023-04-27T19:09:49.068Z,33.30
2023-04-27T19:12:51.658Z,35.55
2023-04-27T19:15:54.693Z,38.88
2023-04-27T19:18:57.748Z,32.75
2023-04-27T19:22:05.671Z,32.75
2023-04-27T19:25:08.536Z,36.65
2023-04-27T19:28:11.636Z,31.83
2023-04-27T19:31:15.699Z,30.88
2023-04-27T19:34:22.544Z,31.75
2023-04-27T19:37:26.479Z,29.88
2023-04-27T19:40:29.713Z,29.25
2023-04-27T19:43:32.800Z,31.98
2023-04-27T19:46:37.235Z,30.02
2023-04-27T19:49:39.694Z,30.55
2023-04-27T19:52:42.958Z,28.33
2023-04-27T19:55:47.283Z,28.60
2023-04-27T19:58:49.916Z,28.90
2023-04-27T20:01:52.526Z,25.45
2023-04-27T20:04:55.533Z,26.45
2023-04-27T20:07:58.030Z,27.40
2023-04-27T20:11:00.979Z,25.95
2023-04-27T20:14:06.197Z,27.73
2023-04-27T20:17:08.928Z,29.63
2023-04-27T20:20:15.290Z,27.92
2023-04-27T20:23:19.492Z,25.00
2023-04-27T20:26:22.636Z,24.25
2023-04-27T20:29:39.843Z,25.33
2023-04-27T20:32:45.961Z,24.58
2023-04-27T20:35:49.096Z,21.98
2023-04-27T20:38:51.381Z,29.50
2023-04-27T20:41:54.788Z,24.15
2023-04-27T20:45:05.976Z,23.38
2023-04-27T20:48:20.264Z,23.13
2023-04-27T20:54:52.599Z,22.02
2023-04-27T21:00:58.458Z,26.02
2023-04-27T21:04:01.836Z,21.52
2023-04-27T21:07:06.489Z,22.15
2023-04-27T21:10:09.508Z,25.08
2023-04-27T21:13:13.918Z,22.10
2023-04-27T21:16:42.958Z,22.95
2023-04-27T21:19:46.691Z,23.17
2023-04-27T21:22:49.159Z,22.67
2023-04-27T21:25:53.184Z,25.15
2023-04-27T21:32:00.354Z,20.70
2023-04-27T21:35:08.969Z,22.73
2023-04-27T21:38:11.710Z,22.33
2023-04-27T21:41:27.164Z,20.42
2023-04-27T21:44:38.549Z,16.83
2023-04-27T21:47:40.898Z,20.42
2023-04-27T21:50:43.643Z,20.17
2023-04-27T21:53:47.676Z,18.95
2023-04-27T22:06:39.212Z,18.52
2023-04-27T22:09:42.190Z,17.45
2023-04-27T22:12:44.934Z,16.95
2023-04-27T22:15:48.307Z,17.15
2023-04-27T22:18:51.920Z,17.83
2023-04-27T22:21:54.488Z,16.42
2023-04-27T22:24:57.091Z,18.40
2023-04-27T22:27:59.389Z,14.65
2023-04-27T22:31:02.306Z,16.70
2023-04-27T22:34:05.722Z,13.38
2023-04-27T22:37:08.621Z,16.30
2023-04-27T22:40:14.216Z,14.95
2023-04-27T22:43:18.188Z,13.48
2023-04-27T22:46:21.409Z,12.90
2023-04-27T22:49:24.672Z,15.82
2023-04-27T22:52:26.947Z,14.90
2023-04-27T22:55:30.575Z,15.60
2023-04-27T22:58:32.745Z,14.35
2023-04-27T23:01:35.569Z,13.75
2023-04-27T23:04:38.150Z,14.93
2023-04-27T23:07:44.862Z,13.50
2023-04-27T23:10:46.862Z,13.63
2023-04-27T23:13:50.909Z,11.15
2023-04-27T23:16:53.099Z,13.18
2023-04-27T23:20:01.367Z,13.23
2023-04-27T23:23:03.426Z,11.15
2023-04-27T23:26:15.331Z,12.27
2023-04-27T23:29:18.596Z,10.70
2023-04-27T23:32:21.338Z,11.80
2023-04-27T23:35:23.420Z,14.23
2023-04-27T23:38:26.266Z,12.35
2023-04-27T23:41:28.995Z,12.68
2023-04-27T23:44:31.522Z,9.32
2023-04-27T23:47:34.476Z,10.98
2023-04-27T23:50:37.812Z,12.10
2023-04-27T23:53:39.797Z,10.02
2023-04-27T23:56:42.301Z,9.65
2023-04-27T23:59:44.986Z,12.88
